Time;durP1;ratioP1;P1;durP2;ratioP2;P2;SDS_P1;SDS_P2;PMS_P1;PMS_P2;Temp;Humidity;BMP_temperature;BMP_pressure;BME280_temperature;BME280_humidity;BME280_pressure;Samples;Min_cycle;Max_cycle;Signal;HPM_P1;HPM_P2
2023/08/12 00:01:00;;;;;;;4.80;2.80;;;;;;;18.98;96.20;101523.78;4949474;28;20254;-46
2023/08/12 00:03:25;;;;;;;5.22;2.42;;;;;;;18.98;96.50;101520.16;4944157;28;20997;-47
2023/08/12 00:05:52;;;;;;;3.35;2.75;;;;;;;18.97;96.23;101522.00;4949133;28;20183;-48
2023/08/12 00:08:17;;;;;;;5.70;2.78;;;;;;;18.95;96.51;101532.09;4940689;28;20753;-47
2023/08/12 00:10:43;;;;;;;4.80;2.75;;;;;;;18.95;96.31;101523.94;4948678;28;20201;-46
2023/08/12 00:13:09;;;;;;;4.43;2.65;;;;;;;18.98;96.38;101521.06;4942872;28;20186;-46
2023/08/12 00:15:34;;;;;;;6.10;2.50;;;;;;;18.96;96.23;101503.97;4947402;28;20254;-46
2023/08/12 00:18:00;;;;;;;5.93;3.13;;;;;;;19.00;96.08;101518.22;4947798;28;20193;-46
2023/08/12 00:20:25;;;;;;;2.92;2.45;;;;;;;19.04;95.47;101517.94;4963831;23;20248;-43
2023/08/12 00:22:51;;;;;;;4.35;2.63;;;;;;;18.98;95.67;101521.06;4971303;28;20186;-44
2023/08/12 00:25:16;;;;;;;5.20;2.78;;;;;;;19.01;95.38;101520.00;4971593;28;20228;-43
2023/08/12 00:27:42;;;;;;;4.85;2.65;;;;;;;19.00;95.49;101526.38;4971243;28;20209;-43
2023/08/12 00:30:08;;;;;;;3.80;2.60;;;;;;;19.04;95.42;101530.66;4971320;28;20568;-44
2023/08/12 00:32:34;;;;;;;5.53;2.70;;;;;;;19.05;95.27;101522.41;4971265;28;20289;-44
2023/08/12 00:35:00;;;;;;;7.05;2.30;;;;;;;19.10;94.67;101522.13;4971136;28;20178;-44
2023/08/12 00:37:25;;;;;;;8.55;2.88;;;;;;;19.08;94.79;101515.91;4969619;28;20205;-44
2023/08/12 00:39:51;;;;;;;6.57;2.53;;;;;;;19.08;94.64;101519.50;4970904;28;20652;-42
2023/08/12 00:42:17;;;;;;;3.10;2.30;;;;;;;19.09;94.46;101528.53;4971067;28;20173;-44
2023/08/12 00:44:42;;;;;;;6.60;3.05;;;;;;;19.07;94.75;101528.63;4969553;28;20257;-43
2023/08/12 00:47:08;;;;;;;5.22;2.50;;;;;;;19.07;94.35;101549.50;4969325;28;20541;-42
2023/08/12 00:49:36;;;;;;;4.97;2.30;;;;;;;19.02;95.16;101565.19;4970821;28;20297;-42
2023/08/12 00:52:02;;;;;;;6.35;2.45;;;;;;;19.00;95.30;101575.25;4971002;28;20628;-40
2023/08/12 00:54:28;;;;;;;3.33;2.70;;;;;;;18.92;96.12;101568.47;4970683;28;20178;-44
2023/08/12 00:56:53;;;;;;;3.30;2.45;;;;;;;18.89;96.88;101584.06;4969208;28;20190;-43
2023/08/12 00:59:20;;;;;;;2.42;2.30;;;;;;;18.95;97.21;101580.97;4970541;28;20244;-44
2023/08/12 01:01:47;;;;;;;5.57;2.72;;;;;;;18.96;97.52;101582.75;4969342;28;20657;-42
2023/08/12 01:04:13;;;;;;;5.25;2.50;;;;;;;18.96;97.27;101585.47;4970447;28;20205;-43
2023/08/12 01:06:38;;;;;;;3.45;2.38;;;;;;;18.97;97.80;101576.31;4970482;28;20178;-44
2023/08/12 01:09:05;;;;;;;7.20;2.78;;;;;;;18.84;98.21;101570.78;4970475;28;20241;-44
2023/08/12 01:11:55;;;;;;;3.50;2.50;;;;;;;18.81;99.18;101570.09;4970814;28;20260;-44
2023/08/12 01:14:45;;;;;;;3.20;2.90;;;;;;;18.85;99.68;101561.69;4970356;28;20636;-44
2023/08/12 01:17:12;;;;;;;5.93;2.20;;;;;;;18.90;99.99;101551.38;4955792;28;20199;-43
2023/08/12 01:19:40;;;;;;;4.82;2.72;;;;;;;18.91;100.00;101549.53;4970430;28;20162;-41
2023/08/12 01:22:09;;;;;;;4.47;2.90;;;;;;;18.87;100.00;101567.00;4968815;28;20185;-43
2023/08/12 01:24:37;;;;;;;3.92;2.35;;;;;;;18.81;100.00;101551.09;4953875;28;20194;-44
2023/08/12 01:27:04;;;;;;;3.95;2.35;;;;;;;18.86;100.00;101546.25;4970076;28;20237;-43
2023/08/12 01:29:33;;;;;;;4.90;2.63;;;;;;;18.73;100.00;101544.25;4969998;28;20209;-43
2023/08/12 01:32:04;;;;;;;8.27;2.78;;;;;;;18.61;100.00;101544.16;4968879;28;20188;-44
2023/08/12 01:34:42;;;;;;;3.08;2.60;;;;;;;18.66;100.00;101539.28;4970110;28;20551;-44
2023/08/12 01:37:13;;;;;;;2.80;2.60;;;;;;;18.66;100.00;101548.31;4969992;28;20170;-42
2023/08/12 01:39:39;;;;;;;2.55;2.35;;;;;;;18.70;100.00;101546.28;4968721;28;20695;-43
2023/08/12 01:42:05;;;;;;;3.92;2.75;;;;;;;18.64;100.00;101547.53;4968803;28;20236;-44
2023/08/12 01:44:31;;;;;;;3.65;2.70;;;;;;;18.64;100.00;101544.81;4969926;28;20208;-45
2023/08/12 01:46:57;;;;;;;3.58;2.55;;;;;;;18.69;100.00;101542.72;4968607;28;20273;-43
2023/08/12 01:49:24;;;;;;;3.35;2.95;;;;;;;18.65;100.00;101524.84;4968547;28;20632;-43
2023/08/12 01:51:49;;;;;;;7.53;2.83;;;;;;;18.64;100.00;101525.81;4968634;28;20236;-44
2023/08/12 01:54:15;;;;;;;3.15;2.88;;;;;;;18.62;100.00;101516.88;4970087;28;20613;-44
2023/08/12 01:56:40;;;;;;;5.20;2.97;;;;;;;18.51;100.00;101514.81;4968710;28;20182;-44
2023/08/12 01:59:06;;;;;;;6.10;2.88;;;;;;;18.46;100.00;101514.25;4969979;28;20672;-45
2023/08/12 02:01:31;;;;;;;4.22;2.97;;;;;;;18.48;100.00;101512.31;4968477;28;20182;-43
2023/08/12 02:03:57;;;;;;;2.70;2.50;;;;;;;18.50;100.00;101499.53;4969701;28;20209;-44
2023/08/12 02:06:22;;;;;;;3.35;2.67;;;;;;;18.57;100.00;101482.88;4969780;28;20192;-44
2023/08/12 02:08:48;;;;;;;6.13;2.80;;;;;;;18.53;100.00;101482.19;4972848;28;20296;-42
2023/08/12 02:11:13;;;;;;;9.32;3.30;;;;;;;18.52;100.00;101485.88;4973708;28;20250;-44
2023/08/12 02:13:39;;;;;;;4.07;2.67;;;;;;;18.49;100.00;101475.19;4973734;28;20174;-45
2023/08/12 02:16:04;;;;;;;3.35;3.05;;;;;;;18.48;100.00;101481.59;4966273;28;20193;-43
2023/08/12 02:18:31;;;;;;;3.17;2.70;;;;;;;18.46;100.00;101492.53;4973671;28;20205;-43
2023/08/12 02:20:57;;;;;;;3.45;2.85;;;;;;;18.52;100.00;101500.31;4973384;28;20190;-43
2023/08/12 02:23:22;;;;;;;2.55;2.35;;;;;;;18.54;100.00;101508.31;4972162;28;20181;-41
2023/08/12 02:25:48;;;;;;;2.85;2.60;;;;;;;18.57;100.00;101507.28;4972226;28;20182;-42
2023/08/12 02:28:14;;;;;;;3.60;2.63;;;;;;;18.56;100.00;101500.09;4972184;28;20205;-42
2023/08/12 02:30:42;;;;;;;3.47;2.65;;;;;;;18.61;100.00;101493.44;4973443;28;20174;-41
2023/08/12 02:33:08;;;;;;;4.47;2.80;;;;;;;18.45;100.00;101481.75;4956065;28;20190;-44
2023/08/12 02:35:34;;;;;;;4.70;3.20;;;;;;;18.38;100.00;101475.84;4972819;28;20196;-43
2023/08/12 02:37:59;;;;;;;4.97;2.95;;;;;;;18.29;100.00;101488.13;4971695;28;20230;-39
2023/08/12 02:40:25;;;;;;;5.38;3.10;;;;;;;18.21;100.00;101473.25;4973136;28;20638;-42
2023/08/12 02:42:50;;;;;;;3.38;2.83;;;;;;;18.21;100.00;101459.69;4973139;28;20640;-40
2023/08/12 02:45:17;;;;;;;3.17;2.97;;;;;;;18.15;100.00;101458.25;4973029;28;20194;-44
2023/08/12 02:47:43;;;;;;;3.33;2.92;;;;;;;18.10;100.00;101479.31;4972870;28;20662;-43
2023/08/12 02:50:09;;;;;;;2.83;2.60;;;;;;;18.19;100.00;101478.81;4972768;28;20261;-40
2023/08/12 02:52:35;;;;;;;4.68;3.17;;;;;;;18.18;100.00;101478.88;4971603;28;20624;-43
2023/08/12 02:55:00;;;;;;;4.53;2.80;;;;;;;18.24;100.00;101479.41;4972878;28;20184;-43
2023/08/12 02:57:25;;;;;;;3.53;3.20;;;;;;;18.22;100.00;101475.91;4971439;28;20281;-42
2023/08/12 02:59:51;;;;;;;4.50;2.95;;;;;;;18.04;100.00;101477.88;4972881;28;20185;-40
2023/08/12 03:02:17;;;;;;;8.68;3.10;;;;;;;18.09;100.00;101470.31;4973220;28;20189;-42
2023/08/12 03:04:42;;;;;;;4.20;3.15;;;;;;;18.03;100.00;101473.41;4971078;28;20236;-43
2023/08/12 03:07:08;;;;;;;5.25;3.28;;;;;;;18.01;100.00;101493.44;4972482;28;20209;-39
2023/08/12 03:09:33;;;;;;;3.75;2.90;;;;;;;17.93;100.00;101510.19;4972514;28;20193;-43
2023/08/12 03:12:01;;;;;;;5.88;3.33;;;;;;;17.79;100.00;101499.22;4972556;28;20174;-43
2023/08/12 03:14:28;;;;;;;4.38;3.15;;;;;;;17.95;100.00;101493.78;4972722;28;20196;-42
2023/08/12 03:16:57;;;;;;;4.43;3.28;;;;;;;18.00;100.00;101502.56;4971338;28;20208;-42
2023/08/12 03:19:22;;;;;;;4.13;3.20;;;;;;;17.97;100.00;101508.13;4969860;28;20213;-38
2023/08/12 03:21:48;;;;;;;5.70;3.30;;;;;;;18.01;100.00;101505.16;4972616;28;20181;-43
2023/08/12 03:24:13;;;;;;;4.32;3.03;;;;;;;18.07;100.00;101499.38;4971866;28;20218;-43
2023/08/12 03:26:39;;;;;;;3.15;2.70;;;;;;;17.97;100.00;101510.84;4970946;28;20201;-42
2023/08/12 03:29:05;;;;;;;2.97;2.70;;;;;;;17.98;100.00;101508.06;4970942;28;20557;-41
2023/08/12 03:31:34;;;;;;;3.35;2.50;;;;;;;18.06;100.00;101513.00;4970236;28;20627;-42
2023/08/12 03:34:00;;;;;;;3.15;2.40;;;;;;;17.98;100.00;101515.31;4970822;28;20182;-40
2023/08/12 03:36:28;;;;;;;3.10;2.80;;;;;;;18.04;100.00;101513.13;4970976;28;20182;-40
2023/08/12 03:38:53;;;;;;;4.85;3.40;;;;;;;17.92;100.00;101521.97;4970837;28;20209;-43
2023/08/12 03:41:24;;;;;;;3.05;2.80;;;;;;;17.95;100.00;101515.47;4970921;28;20188;-39
2023/08/12 03:43:50;;;;;;;2.63;2.42;;;;;;;17.99;100.00;101511.63;4970825;28;20208;-41
2023/08/12 03:46:17;;;;;;;3.42;2.83;;;;;;;18.00;100.00;101506.13;4970555;28;20565;-43
2023/08/12 03:48:42;;;;;;;3.60;3.03;;;;;;;18.03;100.00;101505.06;4971753;28;20735;-44
2023/08/12 03:51:08;;;;;;;4.05;3.20;;;;;;;18.06;100.00;101497.66;4970510;28;20174;-43
2023/08/12 03:53:33;;;;;;;4.97;3.20;;;;;;;18.05;100.00;101503.16;4972082;28;20221;-44
2023/08/12 03:56:00;;;;;;;3.28;2.90;;;;;;;18.10;100.00;101501.03;4954706;28;20170;-43
2023/08/12 03:58:26;;;;;;;3.33;2.97;;;;;;;18.09;100.00;101513.72;4970275;28;20684;-44
2023/08/12 04:00:52;;;;;;;3.75;3.45;;;;;;;18.04;100.00;101499.56;4971606;28;20336;-41
2023/08/12 04:03:17;;;;;;;3.45;3.15;;;;;;;18.01;100.00;101497.03;4970366;28;20236;-43
2023/08/12 04:05:48;;;;;;;3.47;3.28;;;;;;;17.87;100.00;101491.53;4954438;28;20289;-42
2023/08/12 04:08:14;;;;;;;4.38;3.00;;;;;;;17.90;100.00;101491.34;4970310;28;20252;-42
2023/08/12 04:10:40;;;;;;;11.70;3.78;;;;;;;17.84;100.00;101494.41;4970404;28;20180;-43
2023/08/12 04:13:06;;;;;;;5.80;3.20;;;;;;;17.65;100.00;101508.16;4970270;28;20216;-43
2023/08/12 04:15:32;;;;;;;4.18;3.75;;;;;;;17.48;100.00;101500.97;4971484;28;20186;-43
2023/08/12 04:17:58;;;;;;;4.43;4.03;;;;;;;17.34;100.00;101490.00;4971199;28;20225;-43
2023/08/12 04:20:24;;;;;;;4.07;3.67;;;;;;;17.44;100.00;101491.25;4971136;28;20656;-44
2023/08/12 04:22:50;;;;;;;7.75;4.00;;;;;;;17.23;100.00;101488.81;4969895;28;20169;-43
2023/08/12 04:25:15;;;;;;;5.60;3.88;;;;;;;17.35;100.00;101487.22;4969496;28;20688;-41
2023/08/12 04:27:41;;;;;;;4.70;3.85;;;;;;;17.42;100.00;101480.50;4969724;28;20810;-41
2023/08/12 04:30:07;;;;;;;5.07;3.92;;;;;;;17.42;100.00;101476.94;4970774;28;20220;-44
2023/08/12 04:32:33;;;;;;;5.05;4.20;;;;;;;17.28;100.00;101478.56;4963814;28;20178;-42
2023/08/12 04:34:59;;;;;;;5.07;3.90;;;;;;;17.38;100.00;101465.41;4969466;28;20190;-44
2023/08/12 04:37:26;;;;;;;5.80;3.85;;;;;;;17.28;100.00;101461.47;4969340;28;20221;-43
2023/08/12 04:39:52;;;;;;;5.15;4.75;;;;;;;17.27;100.00;101466.00;4970767;28;20213;-44
2023/08/12 04:42:19;;;;;;;5.55;4.50;;;;;;;17.26;100.00;101464.25;4969571;28;20197;-41
2023/08/12 04:44:45;;;;;;;5.10;4.55;;;;;;;17.27;100.00;101466.00;4949261;29;20708;-41
2023/08/12 04:47:10;;;;;;;4.50;4.07;;;;;;;17.30;100.00;101468.53;4969056;28;20182;-44
2023/08/12 04:49:37;;;;;;;7.47;4.90;;;;;;;17.24;100.00;101454.47;4953018;28;20772;-44
2023/08/12 04:52:02;;;;;;;4.93;4.53;;;;;;;17.27;100.00;101447.06;4970813;28;20269;-45
2023/08/12 04:54:28;;;;;;;7.30;4.57;;;;;;;17.26;100.00;101442.59;4969677;28;20174;-41
2023/08/12 04:56:56;;;;;;;8.20;4.97;;;;;;;17.26;100.00;101441.72;4969156;28;20503;-43
2023/08/12 04:59:22;;;;;;;5.90;5.30;;;;;;;17.20;100.00;101453.75;4969248;28;20210;-43
2023/08/12 05:01:47;;;;;;;6.25;5.63;;;;;;;17.17;100.00;101448.53;4968735;28;20186;-40
2023/08/12 05:04:15;;;;;;;6.55;5.57;;;;;;;17.16;100.00;101440.47;4969068;28;20288;-41
2023/08/12 05:06:40;;;;;;;5.93;5.32;;;;;;;17.15;100.00;101438.75;4969010;28;20496;-42
2023/08/12 05:09:06;;;;;;;7.65;5.25;;;;;;;17.21;100.00;101443.81;4970228;28;20236;-44
2023/08/12 05:11:31;;;;;;;6.03;5.20;;;;;;;17.19;100.00;101452.03;4969000;28;20178;-43
2023/08/12 05:13:57;;;;;;;5.97;5.43;;;;;;;17.14;100.00;101456.78;4968901;28;20178;-43
2023/08/12 05:16:23;;;;;;;5.97;5.38;;;;;;;17.18;100.00;101457.50;4969259;28;20206;-42
2023/08/12 05:18:49;;;;;;;7.55;5.38;;;;;;;17.25;100.00;101450.78;4968909;28;20250;-44
2023/08/12 05:21:15;;;;;;;7.50;5.28;;;;;;;17.32;100.00;101443.19;4968919;28;20696;-41
2023/08/12 05:23:41;;;;;;;6.38;5.53;;;;;;;17.33;100.00;101447.66;4970553;28;20190;-41
2023/08/12 05:26:07;;;;;;;8.38;5.78;;;;;;;17.32;100.00;101448.59;4970455;28;20196;-40
2023/08/12 05:28:32;;;;;;;5.53;5.10;;;;;;;17.37;100.00;101452.81;4969379;28;20217;-40
2023/08/12 05:30:58;;;;;;;5.68;5.18;;;;;;;17.35;100.00;101443.91;4970111;28;20684;-42
2023/08/12 05:33:24;;;;;;;5.40;4.93;;;;;;;17.42;100.00;101448.00;4970346;28;20249;-42
2023/08/12 05:35:49;;;;;;;6.32;5.60;;;;;;;17.31;100.00;101445.03;4970411;28;20189;-39
2023/08/12 05:38:15;;;;;;;6.30;5.70;;;;;;;17.34;100.00;101452.09;4970260;28;20233;-40
2023/08/12 05:40:41;;;;;;;6.32;5.72;;;;;;;17.38;100.00;101453.69;4970210;28;20256;-42
2023/08/12 05:43:07;;;;;;;7.32;6.28;;;;;;;17.39;100.00;101460.84;4969677;28;20174;-43
2023/08/12 05:45:32;;;;;;;6.45;5.60;;;;;;;17.38;100.00;101459.09;4969933;28;20201;-41
2023/08/12 05:47:57;;;;;;;5.88;5.25;;;;;;;17.44;100.00;101459.63;4970236;28;20766;-40
2023/08/12 05:50:23;;;;;;;7.78;6.07;;;;;;;17.41;100.00;101472.47;4970009;28;20201;-42
2023/08/12 05:52:48;;;;;;;6.97;6.35;;;;;;;17.41;100.00;101481.47;4970409;28;20182;-42
2023/08/12 05:55:14;;;;;;;5.68;5.18;;;;;;;17.47;100.00;101489.25;4970226;28;20193;-43
2023/08/12 05:57:39;;;;;;;6.75;5.57;;;;;;;17.45;100.00;101484.91;4970131;28;20209;-42
2023/08/12 06:00:06;;;;;;;6.10;4.97;;;;;;;17.54;100.00;101491.63;4970045;28;20269;-41
2023/08/12 06:02:37;;;;;;;7.28;6.65;;;;;;;17.49;100.00;101494.56;4969331;28;20673;-39
2023/08/12 06:05:02;;;;;;;6.32;5.72;;;;;;;17.41;100.00;101496.88;4970033;28;20209;-42
2023/08/12 06:07:28;;;;;;;6.70;6.00;;;;;;;17.33;100.00;101496.41;4969738;28;20210;-41
2023/08/12 06:09:53;;;;;;;7.35;6.00;;;;;;;17.39;100.00;101496.06;4969498;28;20225;-40
2023/08/12 06:12:19;;;;;;;6.70;5.95;;;;;;;17.38;100.00;101494.31;4969627;28;20189;-41
2023/08/12 06:14:44;;;;;;;6.68;6.15;;;;;;;17.35;100.00;101500.78;4969372;28;20182;-41
2023/08/12 06:17:10;;;;;;;7.40;6.15;;;;;;;17.40;100.00;101489.69;4969316;28;20613;-40
2023/08/12 06:19:35;;;;;;;6.50;5.95;;;;;;;17.41;100.00;101494.16;4968948;28;20197;-43
2023/08/12 06:22:01;;;;;;;6.82;5.95;;;;;;;17.41;100.00;101488.75;4966988;28;20194;-41
2023/08/12 06:24:26;;;;;;;7.05;6.35;;;;;;;17.38;100.00;101489.78;4968053;28;20209;-42
2023/08/12 06:26:52;;;;;;;6.93;6.32;;;;;;;17.41;100.00;101497.72;4959916;28;20797;-43
2023/08/12 06:29:17;;;;;;;8.30;6.13;;;;;;;17.46;100.00;101497.47;4963127;28;20213;-43
2023/08/12 06:31:43;;;;;;;6.28;5.70;;;;;;;17.49;100.00;101498.19;4969565;28;20194;-41
2023/08/12 06:34:08;;;;;;;7.72;6.90;;;;;;;17.52;100.00;101480.00;4969811;28;20548;-43
2023/08/12 06:36:34;;;;;;;8.60;6.70;;;;;;;17.53;100.00;101474.47;4969749;28;20647;-41
2023/08/12 06:38:59;;;;;;;9.00;6.82;;;;;;;17.56;100.00;101474.31;4968833;28;20205;-40
2023/08/12 06:41:25;;;;;;;7.47;5.50;;;;;;;17.65;100.00;101475.63;4968268;28;20197;-41
2023/08/12 06:43:50;;;;;;;8.60;7.88;;;;;;;17.65;100.00;101481.91;4969013;28;20206;-40
2023/08/12 06:46:16;;;;;;;7.93;6.22;;;;;;;17.64;100.00;101472.00;4969804;28;20659;-38
2023/08/12 06:48:41;;;;;;;9.40;6.25;;;;;;;17.71;100.00;101469.84;4965293;28;20264;-41
2023/08/12 06:51:10;;;;;;;6.97;6.38;;;;;;;17.71;100.00;101464.44;4966830;28;20245;-41
2023/08/12 06:53:37;;;;;;;7.47;6.72;;;;;;;17.71;100.00;101473.44;4967040;28;20186;-42
2023/08/12 06:56:03;;;;;;;8.93;6.80;;;;;;;17.71;100.00;101459.03;4970677;28;20186;-40
2023/08/12 06:58:28;;;;;;;7.53;6.80;;;;;;;17.74;100.00;101460.66;4971204;28;20210;-41
2023/08/12 07:00:54;;;;;;;7.22;6.60;;;;;;;17.81;100.00;101475.59;4972962;28;20186;-42
2023/08/12 07:03:20;;;;;;;7.47;6.72;;;;;;;17.88;100.00;101475.16;4973063;28;20524;-39
2023/08/12 07:05:45;;;;;;;7.85;7.15;;;;;;;17.97;100.00;101470.19;4970340;28;20174;-40
2023/08/12 07:08:11;;;;;;;7.97;7.28;;;;;;;17.97;100.00;101472.88;4972905;28;20209;-43
2023/08/12 07:10:41;;;;;;;9.32;8.30;;;;;;;17.98;100.00;101471.94;4971255;28;20190;-41
2023/08/12 07:13:06;;;;;;;7.40;6.70;;;;;;;18.05;100.00;101474.19;4969791;28;20322;-39
2023/08/12 07:15:32;;;;;;;6.97;6.47;;;;;;;18.14;100.00;101480.91;4971980;28;20556;-41
2023/08/12 07:17:57;;;;;;;8.68;7.82;;;;;;;18.14;100.00;101482.75;4972360;28;20311;-42
2023/08/12 07:20:24;;;;;;;8.60;7.70;;;;;;;18.11;100.00;101486.53;4971992;28;20197;-41
2023/08/12 07:22:50;;;;;;;8.48;7.68;;;;;;;18.06;100.00;101491.31;4971718;28;20169;-41
2023/08/12 07:25:16;;;;;;;8.45;7.63;;;;;;;18.05;100.00;101495.88;4971995;28;20252;-42
2023/08/12 07:27:41;;;;;;;9.00;7.90;;;;;;;17.97;100.00;101491.88;4971681;28;21451;-40
2023/08/12 07:30:07;;;;;;;7.72;6.93;;;;;;;17.93;100.00;101485.78;4970844;28;20174;-42
2023/08/12 07:32:33;;;;;;;9.65;7.72;;;;;;;17.88;100.00;101486.00;4971648;28;20637;-44
2023/08/12 07:34:59;;;;;;;9.15;8.02;;;;;;;17.87;100.00;101475.28;4972436;28;20181;-41
2023/08/12 07:37:25;;;;;;;9.05;7.72;;;;;;;17.81;100.00;101481.88;4972103;28;20208;-41
2023/08/12 07:39:51;;;;;;;8.15;7.35;;;;;;;17.83;100.00;101490.84;4972283;28;20616;-42
2023/08/12 07:42:17;;;;;;;10.25;7.75;;;;;;;17.83;100.00;101490.84;4972210;28;20178;-43
2023/08/12 07:44:43;;;;;;;8.80;7.90;;;;;;;17.79;100.00;101488.38;4972073;28;20247;-39
2023/08/12 07:47:09;;;;;;;8.05;7.25;;;;;;;17.86;100.00;101487.06;4972008;28;20171;-41
2023/08/12 07:49:35;;;;;;;8.23;7.55;;;;;;;17.81;100.00;101492.72;4971952;28;20627;-42
2023/08/12 07:52:00;;;;;;;8.02;7.32;;;;;;;17.91;100.00;101494.00;4972020;28;20269;-42
2023/08/12 07:54:26;;;;;;;8.93;7.63;;;;;;;17.86;100.00;101500.63;4972009;28;20181;-44
2023/08/12 07:56:53;;;;;;;7.82;7.05;;;;;;;17.91;100.00;101480.44;4971945;28;20186;-42
2023/08/12 07:59:19;;;;;;;11.05;8.32;;;;;;;17.86;100.00;101481.66;4970280;28;20210;-41
2023/08/12 08:01:45;;;;;;;11.95;10.73;;;;;;;17.87;100.00;101481.56;4963826;28;20198;-42
2023/08/12 08:04:11;;;;;;;11.05;9.90;;;;;;;17.91;100.00;101468.72;4971140;28;20256;-41
2023/08/12 08:06:36;;;;;;;7.60;6.90;;;;;;;17.96;100.00;101461.19;4970852;28;20186;-41
2023/08/12 08:09:03;;;;;;;9.30;8.35;;;;;;;17.98;100.00;101467.38;4971512;28;20210;-43
2023/08/12 08:11:30;;;;;;;8.90;7.70;;;;;;;18.00;100.00;101464.59;4971165;28;20174;-41
2023/08/12 08:13:55;;;;;;;7.57;6.93;;;;;;;18.06;100.00;101466.91;4971838;28;20548;-42
2023/08/12 08:16:21;;;;;;;8.75;7.40;;;;;;;18.10;100.00;101471.19;4968562;28;20267;-42
2023/08/12 08:18:47;;;;;;;10.13;7.47;;;;;;;18.14;100.00;101455.63;4964586;28;20202;-40
2023/08/12 08:21:13;;;;;;;9.52;8.52;;;;;;;17.99;100.00;101447.44;4971315;28;20285;-40
2023/08/12 08:23:40;;;;;;;8.38;7.57;;;;;;;18.06;100.00;101446.13;4969750;28;20611;-41
2023/08/12 08:26:06;;;;;;;9.40;8.60;;;;;;;18.01;100.00;101450.91;4967759;28;20200;-41
2023/08/12 08:28:32;;;;;;;8.10;7.40;;;;;;;18.10;100.00;101439.56;4971286;28;20739;-41
2023/08/12 08:30:58;;;;;;;9.00;8.13;;;;;;;18.10;100.00;101431.41;4971164;28;20186;-42
2023/08/12 08:33:25;;;;;;;12.82;8.90;;;;;;;18.10;100.00;101430.50;4971255;28;20188;-41
2023/08/12 08:35:50;;;;;;;9.15;8.32;;;;;;;18.16;100.00;101422.00;4968773;28;20524;-41
2023/08/12 08:38:16;;;;;;;9.82;8.85;;;;;;;18.18;100.00;101416.50;4968149;28;20217;-39
2023/08/12 08:40:42;;;;;;;10.07;9.23;;;;;;;18.22;100.00;101416.22;4970017;28;20848;-42
2023/08/12 08:43:08;;;;;;;11.27;10.23;;;;;;;18.35;100.00;101415.47;4969784;28;20667;-41
2023/08/12 08:45:34;;;;;;;12.30;9.77;;;;;;;18.39;100.00;101411.59;4970896;28;20214;-43
2023/08/12 08:48:01;;;;;;;10.25;9.20;;;;;;;18.32;100.00;101411.09;4970820;28;20743;-42
2023/08/12 08:50:30;;;;;;;11.98;9.65;;;;;;;18.36;100.00;101411.78;4970563;28;20196;-40
2023/08/12 08:52:56;;;;;;;10.30;9.32;;;;;;;18.43;100.00;101416.75;4962569;28;20178;-39
2023/08/12 08:55:22;;;;;;;8.38;7.65;;;;;;;18.56;100.00;101422.25;4970786;28;20518;-42
2023/08/12 08:57:48;;;;;;;10.93;9.07;;;;;;;18.58;100.00;101412.19;4969851;28;20624;-43
2023/08/12 09:00:18;;;;;;;8.57;7.85;;;;;;;18.66;100.00;101406.28;4970571;28;20194;-40
2023/08/12 09:02:46;;;;;;;10.70;9.60;;;;;;;18.60;100.00;101410.25;4970184;28;20178;-42
2023/08/12 09:05:14;;;;;;;10.60;9.00;;;;;;;18.65;100.00;101413.56;4970495;28;20248;-41
2023/08/12 09:07:41;;;;;;;11.35;9.20;;;;;;;18.59;100.00;101418.53;4970972;28;20394;-42
2023/08/12 09:10:08;;;;;;;10.35;9.30;;;;;;;18.64;100.00;101424.50;4970611;28;20185;-40
2023/08/12 09:12:34;;;;;;;9.23;8.35;;;;;;;18.78;100.00;101420.97;4970616;28;20178;-41
2023/08/12 09:14:59;;;;;;;9.95;9.05;;;;;;;18.86;100.00;101426.78;4970646;28;20170;-41
2023/08/12 09:17:25;;;;;;;10.38;9.25;;;;;;;18.94;100.00;101419.88;4968234;28;20258;-40
2023/08/12 09:19:50;;;;;;;9.75;8.85;;;;;;;19.10;100.00;101411.63;4970735;28;20244;-44
2023/08/12 09:22:18;;;;;;;11.48;10.27;;;;;;;19.05;100.00;101411.06;4970319;28;20190;-42
2023/08/12 09:24:43;;;;;;;9.70;8.80;;;;;;;19.25;100.00;101417.91;4970010;28;20237;-40
2023/08/12 09:27:09;;;;;;;12.75;11.45;;;;;;;19.64;100.00;101402.66;4970208;28;20228;-42
2023/08/12 09:29:35;;;;;;;12.32;11.23;;;;;;;19.60;100.00;101398.38;4970315;28;20249;-41
2023/08/12 09:32:15;;;;;;;12.70;11.45;;;;;;;19.60;100.00;101406.53;4970659;28;20203;-42
2023/08/12 09:34:51;;;;;;;11.05;10.02;;;;;;;19.91;100.00;101399.06;4969012;28;20212;-40
2023/08/12 09:37:18;;;;;;;13.20;11.38;;;;;;;20.26;100.00;101398.47;4969951;28;20193;-40
2023/08/12 09:39:44;;;;;;;13.65;12.25;;;;;;;20.22;100.00;101396.94;4970079;28;20273;-42
2023/08/12 09:42:11;;;;;;;11.73;10.63;;;;;;;20.21;100.00;101403.38;4970205;28;20169;-42
2023/08/12 09:44:37;;;;;;;13.52;11.23;;;;;;;20.14;100.00;101395.63;4970090;28;20595;-42
2023/08/12 09:47:03;;;;;;;13.30;11.93;;;;;;;20.29;100.00;101388.25;4970064;28;20256;-43
2023/08/12 09:49:29;;;;;;;10.68;9.73;;;;;;;20.36;100.00;101389.56;4970209;28;20186;-43
2023/08/12 09:51:56;;;;;;;9.15;8.35;;;;;;;20.39;100.00;101385.75;4970223;28;20243;-43
2023/08/12 09:54:25;;;;;;;12.02;10.57;;;;;;;20.24;100.00;101381.38;4968893;28;20593;-41
2023/08/12 09:56:56;;;;;;;11.95;10.02;;;;;;;20.32;100.00;101379.00;4970250;28;20185;-41
2023/08/12 09:59:23;;;;;;;10.40;9.35;;;;;;;20.34;100.00;101374.31;4963721;28;20371;-47
2023/08/12 10:01:53;;;;;;;13.18;9.57;;;;;;;20.36;100.00;101372.34;4961466;28;20320;-44
2023/08/12 10:04:22;;;;;;;11.48;10.18;;;;;;;20.40;100.00;101368.44;4958702;28;20220;-44
2023/08/12 10:06:49;;;;;;;10.60;9.57;;;;;;;20.54;100.00;101375.63;4960856;28;20198;-44
2023/08/12 10:09:18;;;;;;;10.40;9.40;;;;;;;20.66;100.00;101365.72;4961670;28;20210;-44
2023/08/12 10:11:44;;;;;;;10.38;9.32;;;;;;;20.72;100.00;101365.28;4960665;28;20275;-44
2023/08/12 10:14:10;;;;;;;11.23;8.65;;;;;;;20.69;100.00;101362.78;4961194;28;20282;-45
2023/08/12 10:16:36;;;;;;;10.80;8.82;;;;;;;20.66;100.00;101361.16;4955957;28;20186;-44
2023/08/12 10:19:04;;;;;;;10.93;8.40;;;;;;;20.61;100.00;101365.19;4961345;28;20201;-45
2023/08/12 10:21:30;;;;;;;10.35;9.25;;;;;;;20.61;100.00;101354.31;4959187;28;20181;-45
2023/08/12 10:23:58;;;;;;;12.43;9.18;;;;;;;20.54;100.00;101349.25;4954785;28;20209;-43
2023/08/12 10:26:25;;;;;;;9.27;8.38;;;;;;;20.62;100.00;101359.66;4962066;28;20284;-43
2023/08/12 10:28:50;;;;;;;12.35;8.95;;;;;;;20.55;100.00;101351.03;4961876;28;20298;-44
2023/08/12 10:31:16;;;;;;;10.48;9.45;;;;;;;20.47;100.00;101356.13;4965619;28;20699;-45
2023/08/12 10:33:42;;;;;;;13.43;9.77;;;;;;;20.36;100.00;101346.00;4961888;28;20189;-45
2023/08/12 10:36:09;;;;;;;9.02;7.97;;;;;;;20.33;100.00;101346.25;4961873;28;20177;-42
2023/08/12 10:38:35;;;;;;;9.85;8.80;;;;;;;20.40;100.00;101353.94;4967576;28;20240;-45
2023/08/12 10:41:23;;;;;;;10.13;9.13;;;;;;;20.37;100.00;101347.75;4961328;28;20306;-45
2023/08/12 10:43:58;;;;;;;9.40;8.50;;;;;;;20.32;100.00;101351.78;4964630;28;20708;-45
2023/08/12 10:46:36;;;;;;;10.35;9.30;;;;;;;20.40;100.00;101352.13;4963105;28;20200;-46
2023/08/12 10:49:08;;;;;;;10.90;7.97;;;;;;;20.54;100.00;101340.22;4961968;28;20212;-46
2023/08/12 10:51:51;;;;;;;10.32;8.45;;;;;;;20.65;100.00;101342.22;4962142;28;20571;-44
2023/08/12 10:54:17;;;;;;;10.10;8.82;;;;;;;20.68;100.00;101350.16;4961506;28;20180;-44
2023/08/12 10:57:05;;;;;;;10.95;8.70;;;;;;;20.71;100.00;101339.03;4962570;28;20189;-45
2023/08/12 10:59:46;;;;;;;9.02;8.10;;;;;;;20.83;100.00;101335.41;4960762;28;20182;-43
2023/08/12 11:02:19;;;;;;;10.25;8.95;;;;;;;20.95;100.00;101339.09;4964738;28;20189;-47
2023/08/12 11:04:49;;;;;;;9.07;8.18;;;;;;;20.95;100.00;101334.50;4959379;28;20295;-44
2023/08/12 11:07:19;;;;;;;9.73;8.77;;;;;;;20.84;100.00;101315.38;4961105;28;20204;-44
2023/08/12 11:09:45;;;;;;;8.85;7.90;;;;;;;;;;4966176;28;20194;-45
2023/08/12 11:12:11;;;;;;;7.38;6.68;;;;;;;21.14;100.00;101311.34;4966030;28;20240;-46
2023/08/12 11:14:57;;;;;;;9.88;8.43;;;;;;;20.95;100.00;101314.59;4958808;28;20256;-46